createdAt,value
2023-04-02T00:01:00.214Z,17.5
2023-04-02T00:13:00.208Z,17.6
2023-04-02T00:25:00.323Z,17.5
2023-04-02T00:37:00.697Z,17.5
2023-04-02T00:49:00.247Z,17.4
2023-04-02T01:01:00.278Z,17.4
2023-04-02T01:13:00.352Z,17.3
2023-04-02T01:25:00.360Z,17.3
2023-04-02T01:37:00.319Z,17.2
2023-04-02T01:49:00.256Z,17.2
2023-04-02T02:01:00.402Z,17.2
2023-04-02T02:13:00.373Z,17.1
2023-04-02T02:25:00.319Z,17.1
2023-04-02T02:37:00.518Z,17
2023-04-02T02:49:00.417Z,17
2023-04-02T03:01:00.407Z,17
2023-04-02T03:13:00.330Z,17
2023-04-02T03:25:00.518Z,16.9
2023-04-02T03:37:00.491Z,16.9
2023-04-02T03:49:00.439Z,16.9
2023-04-02T04:01:00.368Z,16.9
2023-04-02T04:13:00.547Z,16.9
2023-04-02T04:25:00.473Z,16.9
2023-04-02T04:37:00.487Z,16.8
2023-04-02T04:49:00.593Z,16.8
2023-04-02T05:01:00.562Z,16.8
2023-04-02T05:13:00.511Z,16.8
2023-04-02T05:25:00.492Z,16.8
2023-04-02T05:37:00.611Z,16.7
2023-04-02T05:49:00.601Z,16.7
2023-04-02T06:01:00.535Z,16.7
2023-04-02T06:13:00.512Z,16.7
2023-04-02T06:25:00.645Z,16.7
2023-04-02T06:37:00.639Z,16.7
2023-04-02T06:49:00.593Z,16.6
2023-04-02T07:01:00.742Z,16.6
2023-04-02T07:13:00.680Z,16.6
2023-04-02T07:25:00.667Z,16.6
2023-04-02T07:37:00.591Z,16.6
2023-04-02T07:49:00.810Z,16.6
2023-04-02T08:01:00.719Z,16.6
2023-04-02T08:13:00.697Z,16.6
2023-04-02T08:25:00.648Z,16.6
2023-04-02T08:37:00.816Z,16.6
2023-04-02T08:49:00.744Z,16.6
2023-04-02T09:01:00.735Z,16.7
2023-04-02T09:13:00.913Z,16.8
2023-04-02T09:25:00.881Z,16.9
2023-04-02T09:37:01.002Z,16.9
2023-04-02T09:49:01.158Z,16.9
2023-04-02T10:01:00.905Z,16.9
2023-04-02T10:13:00.891Z,17
2023-04-02T10:25:01.036Z,17
2023-04-02T10:37:00.788Z,17
2023-04-02T10:49:00.941Z,17
2023-04-02T11:01:00.928Z,17.1
2023-04-02T11:13:00.847Z,17.1
2023-04-02T11:25:00.870Z,17
2023-04-02T11:37:00.964Z,17.1
2023-04-02T11:49:00.951Z,17.1
2023-04-02T12:01:01.658Z,17.1
2023-04-02T12:13:01.485Z,17.1
2023-04-02T12:25:01.283Z,17.3
2023-04-02T12:37:00.975Z,17.3
2023-04-02T12:49:00.895Z,17.3
2023-04-02T13:01:01.091Z,17.4
2023-04-02T13:13:01.051Z,17.6
2023-04-02T13:25:01.032Z,18
2023-04-02T13:37:01.136Z,17.9
2023-04-02T13:49:01.155Z,18.3
2023-04-02T14:01:01.051Z,18.4
2023-04-02T14:13:01.050Z,18.6
2023-04-02T14:25:01.194Z,18.8
2023-04-02T14:37:01.151Z,18.6
2023-04-02T14:49:01.086Z,18.7
2023-04-02T15:01:01.062Z,18.6
2023-04-02T15:13:01.198Z,18.6
2023-04-02T15:25:01.200Z,18.5
2023-04-02T15:37:01.113Z,18.4
2023-04-02T15:49:01.094Z,18.4
2023-04-02T16:01:01.239Z,18.5
2023-04-02T16:13:01.204Z,18.4
2023-04-02T16:25:01.174Z,18.6
2023-04-02T16:37:01.323Z,18.7
2023-04-02T16:49:01.448Z,18.7
2023-04-02T17:01:01.274Z,18.8
2023-04-02T17:13:01.191Z,18.8
2023-04-02T17:25:01.391Z,18.8
2023-04-02T17:37:01.310Z,18.8
2023-04-02T17:49:01.284Z,18.9
2023-04-02T18:01:01.398Z,18.6
2023-04-02T18:13:01.484Z,18.5
2023-04-02T18:25:07.533Z,18.3
2023-04-02T18:37:01.485Z,18.3
2023-04-02T18:49:01.324Z,18.3
2023-04-02T19:01:01.295Z,18.2
2023-04-02T19:13:02.425Z,18.1
2023-04-02T19:25:01.486Z,18.1
2023-04-02T19:37:01.342Z,18.1
2023-04-02T19:49:01.440Z,17.9
2023-04-02T20:01:01.383Z,17.8
2023-04-02T20:13:01.577Z,17.8
2023-04-02T20:25:01.551Z,17.7
2023-04-02T20:37:01.467Z,17.7
2023-04-02T20:49:01.397Z,17.6
2023-04-02T21:01:01.592Z,17.5
2023-04-02T21:13:01.517Z,17.5
2023-04-02T21:25:01.525Z,17.5
2023-04-02T21:37:01.408Z,17.5
2023-04-02T21:49:01.601Z,17.4
2023-04-02T22:01:01.554Z,17.3
2023-04-02T22:13:01.561Z,17.3
2023-04-02T22:25:01.516Z,17.2
2023-04-02T22:37:01.717Z,17.2
2023-04-02T22:49:01.962Z,17.2
2023-04-02T23:01:01.628Z,17.1
2023-04-02T23:13:01.550Z,17.1
2023-04-02T23:25:01.540Z,17.1
2023-04-02T23:37:01.740Z,17.1
2023-04-02T23:49:01.758Z,17.1
